createdAt,value
2022-09-01T00:00:04.438Z,92.20
2022-09-01T00:02:31.839Z,92.20
2022-09-01T00:04:59.721Z,92.20
2022-09-01T00:07:32.217Z,92.20
2022-09-01T00:10:00.997Z,92.20
2022-09-01T00:12:30.211Z,92.20
2022-09-01T00:14:58.930Z,92.20
2022-09-01T00:17:26.840Z,92.20
2022-09-01T00:19:54.582Z,92.20
2022-09-01T00:22:22.018Z,92.20
2022-09-01T00:24:49.735Z,92.20
2022-09-01T00:27:17.538Z,92.20
2022-09-01T00:29:45.361Z,92.20
2022-09-01T00:32:13.599Z,92.20
2022-09-01T00:34:41.369Z,92.20
2022-09-01T00:37:08.984Z,92.20
2022-09-01T00:39:36.756Z,92.20
2022-09-01T00:42:04.867Z,92.20
2022-09-01T00:44:32.643Z,92.20
2022-09-01T00:47:00.471Z,92.20
2022-09-01T00:49:28.142Z,92.20
2022-09-01T00:52:01.619Z,92.20
2022-09-01T00:54:34.419Z,92.20
2022-09-01T00:57:03.235Z,92.20
2022-09-01T00:59:32.255Z,92.20
2022-09-01T01:02:00.197Z,92.20
2022-09-01T01:04:27.581Z,92.20
2022-09-01T01:07:03.272Z,92.20
2022-09-01T01:09:34.775Z,92.20
2022-09-01T01:12:05.735Z,92.20
2022-09-01T01:14:37.236Z,92.20
2022-09-01T01:17:05.149Z,92.20
2022-09-01T01:20:01.876Z,92.20
2022-09-01T01:22:50.505Z,92.20
2022-09-01T01:25:18.954Z,92.20
2022-09-01T01:27:46.441Z,92.20
2022-09-01T01:30:18.725Z,92.20
2022-09-01T01:32:47.933Z,92.20
2022-09-01T01:35:17.801Z,92.20
2022-09-01T01:37:49.418Z,92.20
2022-09-01T01:40:20.306Z,92.20
2022-09-01T01:42:51.656Z,92.20
2022-09-01T01:45:22.460Z,92.20
2022-09-01T01:47:53.701Z,92.20
2022-09-01T01:50:36.257Z,92.20
2022-09-01T01:53:11.061Z,92.20
2022-09-01T01:55:42.177Z,92.20
2022-09-01T01:58:12.503Z,92.20
2022-09-01T02:00:40.422Z,92.20
2022-09-01T02:03:07.809Z,92.20
2022-09-01T02:05:36.861Z,92.20
2022-09-01T02:08:07.927Z,92.20
2022-09-01T02:10:43.037Z,92.20
2022-09-01T02:13:16.747Z,92.20
2022-09-01T02:15:54.134Z,92.20
2022-09-01T02:18:28.754Z,92.20
2022-09-01T02:20:59.169Z,92.20
2022-09-01T02:23:27.025Z,92.20
2022-09-01T02:26:15.739Z,92.20
2022-09-01T02:28:54.855Z,92.20
2022-09-01T02:31:23.648Z,92.20
2022-09-01T02:33:51.643Z,92.20
2022-09-01T02:36:20.373Z,92.20
2022-09-01T02:38:53.365Z,92.20
2022-09-01T02:41:24.008Z,92.20
2022-09-01T02:43:51.490Z,92.20
2022-09-01T02:46:24.514Z,92.20
2022-09-01T02:48:53.427Z,92.20
2022-09-01T02:51:22.978Z,92.20
2022-09-01T02:53:53.129Z,92.20
2022-09-01T02:56:25.998Z,92.20
2022-09-01T02:58:54.395Z,92.20
2022-09-01T03:01:33.464Z,92.20
2022-09-01T03:04:06.031Z,92.20
2022-09-01T03:06:34.769Z,92.20
2022-09-01T03:09:03.230Z,92.20
2022-09-01T03:11:32.777Z,92.20
2022-09-01T03:14:00.997Z,92.20
2022-09-01T03:16:32.520Z,92.20
2022-09-01T03:19:00.444Z,92.20
2022-09-01T03:21:27.999Z,92.20
2022-09-01T03:23:56.023Z,92.20
2022-09-01T03:26:24.166Z,92.20
2022-09-01T03:28:52.713Z,92.20
2022-09-01T03:31:21.225Z,92.20
2022-09-01T03:33:48.920Z,92.20
2022-09-01T03:36:19.751Z,92.20
2022-09-01T03:38:50.188Z,92.20
2022-09-01T03:41:23.404Z,92.20
2022-09-01T03:43:51.669Z,92.20
2022-09-01T03:46:22.331Z,92.20
2022-09-01T03:48:55.340Z,92.20
2022-09-01T03:51:23.797Z,92.20
2022-09-01T03:53:55.333Z,92.20
2022-09-01T03:56:27.687Z,92.20
2022-09-01T03:58:57.924Z,92.20
2022-09-01T04:01:34.068Z,92.20
2022-09-01T04:04:01.542Z,92.20
2022-09-01T04:06:30.674Z,92.20
2022-09-01T04:09:03.517Z,92.20
2022-09-01T04:11:32.696Z,92.20
2022-09-01T04:14:01.391Z,92.20
2022-09-01T04:16:50.288Z,92.20
2022-09-01T04:19:26.599Z,92.20
2022-09-01T04:21:57.161Z,92.20
2022-09-01T04:24:28.373Z,92.20
2022-09-01T04:27:02.666Z,92.20
2022-09-01T04:29:32.182Z,92.20
2022-09-01T04:32:21.686Z,92.20
2022-09-01T04:34:48.947Z,92.20
2022-09-01T04:37:21.521Z,92.20
2022-09-01T04:39:56.111Z,92.20
2022-09-01T04:42:27.511Z,92.20
2022-09-01T04:44:57.885Z,92.20
2022-09-01T04:47:35.408Z,92.20
2022-09-01T04:50:13.219Z,92.20
2022-09-01T04:52:42.553Z,92.20
2022-09-01T04:55:17.952Z,92.20
2022-09-01T04:57:47.912Z,92.20
2022-09-01T05:00:24.254Z,92.20
2022-09-01T05:03:03.981Z,92.20
2022-09-01T05:05:42.826Z,92.20
2022-09-01T05:08:23.039Z,92.20
2022-09-01T05:10:55.978Z,92.20
2022-09-01T05:13:24.601Z,92.20
2022-09-01T05:16:02.406Z,92.20
2022-09-01T05:18:29.915Z,92.20
2022-09-01T05:20:57.927Z,92.20
2022-09-01T05:23:26.954Z,92.20
2022-09-01T05:25:55.141Z,92.20
2022-09-01T05:28:27.389Z,92.20
2022-09-01T05:30:55.097Z,92.20
2022-09-01T05:33:22.685Z,92.20
2022-09-01T05:35:57.088Z,92.20
2022-09-01T05:38:26.107Z,92.20
2022-09-01T05:41:04.663Z,92.20
2022-09-01T05:43:32.816Z,92.20
2022-09-01T05:46:07.073Z,92.20
2022-09-01T05:48:36.786Z,92.20
2022-09-01T05:51:27.491Z,92.20
2022-09-01T05:54:00.233Z,92.20
2022-09-01T05:56:30.535Z,92.20
2022-09-01T06:01:50.371Z,92.20
2022-09-01T06:04:18.276Z,92.20
2022-09-01T06:07:05.708Z,92.20
2022-09-01T06:09:39.952Z,92.20
2022-09-01T06:12:18.399Z,92.20
2022-09-01T06:14:48.716Z,92.20
2022-09-01T06:17:19.829Z,92.20
2022-09-01T06:19:47.147Z,92.20
2022-09-01T06:22:14.908Z,92.20
2022-09-01T06:24:43.467Z,92.20
2022-09-01T06:27:12.425Z,92.20
2022-09-01T06:29:40.272Z,92.20
2022-09-01T06:32:10.670Z,92.20
2022-09-01T06:34:46.480Z,92.20
2022-09-01T06:37:13.917Z,92.20
2022-09-01T06:39:41.575Z,92.20
2022-09-01T06:42:10.582Z,92.20
2022-09-01T06:44:41.224Z,92.20
2022-09-01T06:47:09.335Z,92.20
2022-09-01T06:49:40.409Z,92.20
2022-09-01T06:52:08.216Z,92.20
2022-09-01T06:54:39.554Z,92.20
2022-09-01T06:59:54.949Z,92.20
2022-09-01T07:02:27.037Z,92.20
2022-09-01T07:04:55.266Z,92.20
2022-09-01T07:13:05.900Z,92.20
2022-09-01T07:16:31.910Z,92.20
2022-09-01T07:18:25.550Z,92.20
2022-09-01T07:21:38.884Z,92.20
2022-09-01T07:24:07.694Z,92.20
2022-09-01T07:26:32.125Z,92.20
2022-09-01T07:29:04.065Z,92.20
2022-09-01T07:34:46.502Z,92.20
2022-09-01T07:42:31.249Z,92.20
2022-09-01T07:45:33.297Z,92.20
2022-09-01T07:48:06.751Z,92.20
2022-09-01T07:53:28.526Z,92.20
2022-09-01T07:55:56.787Z,91.20
2022-09-01T07:58:27.966Z,90.30
2022-09-01T08:00:56.514Z,88.70
2022-09-01T08:03:25.554Z,88.80
2022-09-01T08:06:01.226Z,86.40
2022-09-01T08:08:29.433Z,87.10
2022-09-01T08:11:04.816Z,86.80
2022-09-01T08:13:38.905Z,84.40
2022-09-01T08:16:17.097Z,86.00
2022-09-01T08:18:49.156Z,86.50
2022-09-01T08:21:18.323Z,82.90
2022-09-01T08:23:46.017Z,85.40
2022-09-01T08:26:16.489Z,84.30
2022-09-01T08:28:54.322Z,82.80
2022-09-01T08:31:23.848Z,83.50
2022-09-01T08:33:52.408Z,81.80
2022-09-01T08:36:23.976Z,81.20
2022-09-01T08:38:54.073Z,77.90
2022-09-01T08:41:39.273Z,80.80
2022-09-01T08:44:28.085Z,77.20
2022-09-01T08:47:06.158Z,76.30
2022-09-01T08:49:44.366Z,78.40
2022-09-01T08:52:23.343Z,77.10
2022-09-01T08:54:50.958Z,77.50
2022-09-01T08:57:36.519Z,74.30
2022-09-01T09:00:09.640Z,74.50
2022-09-01T09:03:13.202Z,72.00
2022-09-01T09:06:08.312Z,72.30
2022-09-01T09:08:53.762Z,73.70
2022-09-01T09:11:55.496Z,73.10
2022-09-01T09:14:33.105Z,72.90
2022-09-01T09:17:01.750Z,71.40
2022-09-01T09:19:32.223Z,71.30
2022-09-01T09:22:01.639Z,69.90
2022-09-01T09:24:56.428Z,68.10
2022-09-01T09:27:30.495Z,69.10
2022-09-01T09:30:11.142Z,70.50
2022-09-01T09:33:46.640Z,71.80
2022-09-01T09:35:48.616Z,70.60
2022-09-01T09:38:29.203Z,71.80
2022-09-01T09:41:18.305Z,73.80
2022-09-01T09:44:01.362Z,74.70
2022-09-01T09:46:38.777Z,73.30
2022-09-01T09:49:34.699Z,73.90
2022-09-01T09:52:11.303Z,74.80
2022-09-01T09:54:41.330Z,74.00
2022-09-01T09:57:16.692Z,74.00
2022-09-01T10:00:04.067Z,75.50
2022-09-01T10:02:43.979Z,74.30
2022-09-01T10:05:39.124Z,70.60
2022-09-01T10:08:10.272Z,69.70
2022-09-01T10:10:42.540Z,68.50
2022-09-01T10:13:15.159Z,68.20
2022-09-01T10:15:49.177Z,69.00
2022-09-01T10:18:29.523Z,70.90
2022-09-01T10:21:38.479Z,71.30
2022-09-01T10:24:25.719Z,72.60
2022-09-01T10:26:57.653Z,74.40
2022-09-01T10:29:48.588Z,74.90
2022-09-01T10:32:50.761Z,74.30
2022-09-01T10:35:24.387Z,74.60
2022-09-01T10:37:52.780Z,74.70
2022-09-01T10:40:31.464Z,74.80
2022-09-01T10:43:26.032Z,75.30
2022-09-01T10:45:58.931Z,75.30
2022-09-01T10:48:48.030Z,70.30
2022-09-01T10:51:19.466Z,67.60
2022-09-01T10:54:03.213Z,66.70
2022-09-01T10:56:52.261Z,65.60
2022-09-01T10:59:32.859Z,65.50
2022-09-01T11:04:53.053Z,61.60
2022-09-01T11:07:33.563Z,61.00
2022-09-01T11:10:43.860Z,61.20
2022-09-01T11:13:50.352Z,61.20
2022-09-01T11:16:50.236Z,62.80
2022-09-01T11:19:58.532Z,64.90
2022-09-01T11:22:37.968Z,66.10
2022-09-01T11:25:41.493Z,68.00
2022-09-01T11:28:10.318Z,68.20
2022-09-01T11:30:51.033Z,69.60
2022-09-01T11:33:21.186Z,69.60
2022-09-01T11:35:58.415Z,69.20
2022-09-01T11:38:27.736Z,69.30
2022-09-01T11:40:58.615Z,68.70
2022-09-01T11:43:27.729Z,65.00
2022-09-01T11:46:07.397Z,63.10
2022-09-01T11:48:35.507Z,63.30
2022-09-01T11:51:04.916Z,65.50
2022-09-01T11:53:32.902Z,66.50
2022-09-01T11:56:18.189Z,68.00
2022-09-01T11:58:45.938Z,66.70
2022-09-01T12:01:32.898Z,64.90
2022-09-01T12:04:22.707Z,63.20
2022-09-01T12:07:00.121Z,60.80
2022-09-01T12:09:44.355Z,62.60
2022-09-01T12:12:43.888Z,62.80
2022-09-01T12:15:26.978Z,64.90
2022-09-01T12:18:09.335Z,64.70
2022-09-01T12:20:41.424Z,65.40
2022-09-01T12:23:40.942Z,66.60
2022-09-01T12:26:14.150Z,65.00
2022-09-01T12:28:42.654Z,65.00
2022-09-01T12:31:24.071Z,66.60
2022-09-01T12:33:53.117Z,66.80
2022-09-01T12:36:37.680Z,65.10
2022-09-01T12:39:20.502Z,64.50
2022-09-01T12:42:20.838Z,64.80
2022-09-01T12:44:52.299Z,65.10
2022-09-01T12:47:38.106Z,66.00
2022-09-01T12:50:16.408Z,64.90
2022-09-01T12:52:53.812Z,63.60
2022-09-01T12:58:26.382Z,64.10
2022-09-01T13:01:18.296Z,63.80
2022-09-01T13:04:13.614Z,63.80
2022-09-01T13:06:42.128Z,64.40
2022-09-01T13:09:10.299Z,63.00
2022-09-01T13:14:26.011Z,64.80
2022-09-01T13:16:53.335Z,62.80
2022-09-01T13:19:27.735Z,63.40
2022-09-01T13:21:57.394Z,63.20
2022-09-01T13:24:29.372Z,63.40
2022-09-01T13:29:46.981Z,62.40
2022-09-01T13:32:18.761Z,63.40
2022-09-01T13:34:50.524Z,63.40
2022-09-01T13:37:20.751Z,63.00
2022-09-01T13:39:48.777Z,62.50
2022-09-01T13:42:17.111Z,62.30
2022-09-01T13:44:48.403Z,63.10
2022-09-01T13:47:34.003Z,61.50
2022-09-01T13:50:11.208Z,62.90
2022-09-01T13:52:42.245Z,64.40
2022-09-01T13:55:19.126Z,64.70
2022-09-01T13:57:46.695Z,64.60
2022-09-01T14:00:21.316Z,64.20
2022-09-01T14:02:52.189Z,63.40
2022-09-01T14:05:29.108Z,62.50
2022-09-01T14:07:56.869Z,63.50
2022-09-01T14:10:25.948Z,64.00
2022-09-01T14:12:53.578Z,65.30
2022-09-01T14:15:27.006Z,66.30
2022-09-01T14:17:57.188Z,66.40
2022-09-01T14:20:33.407Z,66.50
2022-09-01T14:23:06.853Z,66.60
2022-09-01T14:25:35.789Z,66.80
2022-09-01T14:28:04.208Z,67.20
2022-09-01T14:30:33.461Z,66.70
2022-09-01T14:33:02.042Z,65.10
2022-09-01T14:35:34.307Z,67.10
2022-09-01T14:38:05.492Z,66.60
2022-09-01T14:40:33.099Z,67.00
2022-09-01T14:43:00.751Z,66.90
2022-09-01T14:45:31.275Z,65.50
2022-09-01T14:48:01.646Z,66.00
2022-09-01T14:50:32.845Z,66.90
2022-09-01T14:53:02.466Z,66.20
2022-09-01T14:55:31.989Z,65.40
2022-09-01T14:58:01.279Z,64.40
2022-09-01T15:00:30.574Z,65.20
2022-09-01T15:02:58.779Z,65.20
2022-09-01T15:05:26.789Z,65.50
2022-09-01T15:07:54.405Z,65.60
2022-09-01T15:10:25.947Z,66.80
2022-09-01T15:12:58.557Z,66.70
2022-09-01T15:15:27.307Z,66.70
2022-09-01T15:17:55.511Z,66.70
2022-09-01T15:20:44.027Z,65.70
2022-09-01T15:23:17.386Z,66.60
2022-09-01T15:25:45.216Z,65.60
2022-09-01T15:28:13.260Z,65.80
2022-09-01T15:30:41.718Z,65.80
2022-09-01T15:33:15.188Z,66.00
2022-09-01T15:35:44.503Z,66.20
2022-09-01T15:38:16.248Z,66.20
2022-09-01T15:40:55.393Z,66.30
2022-09-01T15:43:25.953Z,66.70
2022-09-01T15:45:53.443Z,66.80
2022-09-01T15:48:21.506Z,67.50
2022-09-01T15:50:48.928Z,67.80
2022-09-01T15:53:16.407Z,68.20
2022-09-01T15:55:46.425Z,69.30
2022-09-01T15:58:16.590Z,69.60
2022-09-01T16:00:45.225Z,69.50
2022-09-01T16:03:13.691Z,70.00
2022-09-01T16:05:41.887Z,70.50
2022-09-01T16:08:10.069Z,69.60
2022-09-01T16:10:40.267Z,69.20
2022-09-01T16:13:08.826Z,70.40
2022-09-01T16:15:42.456Z,69.90
2022-09-01T16:18:15.614Z,69.70
2022-09-01T16:21:03.677Z,69.90
2022-09-01T16:23:44.580Z,70.10
2022-09-01T16:26:12.529Z,69.80
2022-09-01T16:28:42.708Z,69.30
2022-09-01T16:31:16.723Z,69.50
2022-09-01T16:33:56.760Z,70.10
2022-09-01T16:36:26.979Z,70.70
2022-09-01T16:38:55.922Z,71.20
2022-09-01T16:41:54.690Z,70.90
2022-09-01T16:44:37.242Z,71.70
2022-09-01T16:47:39.537Z,71.90
2022-09-01T16:50:16.490Z,71.90
2022-09-01T16:53:06.871Z,71.50
2022-09-01T16:56:02.360Z,71.80
2022-09-01T16:58:46.656Z,71.70
2022-09-01T17:01:27.117Z,72.20
2022-09-01T17:04:18.427Z,72.90
2022-09-01T17:07:24.355Z,72.90
2022-09-01T17:10:05.847Z,73.50
2022-09-01T17:12:53.120Z,73.20
2022-09-01T17:15:39.624Z,72.80
2022-09-01T17:18:22.394Z,73.30
2022-09-01T17:20:58.049Z,74.20
2022-09-01T17:23:30.558Z,74.30
2022-09-01T17:26:03.470Z,75.00
2022-09-01T17:28:38.130Z,76.20
2022-09-01T17:31:13.586Z,77.50
2022-09-01T17:34:09.939Z,78.20
2022-09-01T17:36:46.949Z,78.40
2022-09-01T17:39:37.451Z,76.80
2022-09-01T17:42:30.581Z,76.40
2022-09-01T17:45:29.700Z,76.30
2022-09-01T17:47:56.998Z,78.30
2022-09-01T17:53:59.417Z,80.00
2022-09-01T17:56:54.104Z,80.00
2022-09-01T17:59:54.306Z,79.90
2022-09-01T18:02:47.035Z,80.50
2022-09-01T18:05:17.602Z,81.60
2022-09-01T18:08:09.418Z,81.90
2022-09-01T18:10:44.860Z,82.80
2022-09-01T18:13:51.950Z,83.50
2022-09-01T18:16:26.163Z,84.40
2022-09-01T18:18:54.958Z,85.10
2022-09-01T18:21:37.083Z,85.80
2022-09-01T18:24:37.988Z,86.30
2022-09-01T18:27:08.285Z,86.30
2022-09-01T18:29:36.695Z,85.40
2022-09-01T18:32:24.842Z,84.70
2022-09-01T18:35:08.630Z,83.70
2022-09-01T18:38:02.888Z,84.60
2022-09-01T18:40:36.348Z,85.50
2022-09-01T18:43:22.635Z,85.40
2022-09-01T18:45:57.091Z,85.90
2022-09-01T18:48:30.821Z,87.20
2022-09-01T18:50:58.325Z,87.70
2022-09-01T18:53:57.465Z,88.50
2022-09-01T18:56:49.916Z,89.30
2022-09-01T18:59:44.530Z,90.10
2022-09-01T19:02:34.408Z,90.50
2022-09-01T19:05:15.630Z,90.40
2022-09-01T19:07:46.135Z,90.60
2022-09-01T19:10:18.430Z,90.50
2022-09-01T19:13:17.316Z,90.80
2022-09-01T19:15:51.564Z,91.20
2022-09-01T19:18:43.548Z,91.60
2022-09-01T19:21:15.238Z,91.90
2022-09-01T19:23:53.871Z,92.00
2022-09-01T19:26:25.596Z,92.20
2022-09-01T19:29:01.397Z,92.20
2022-09-01T19:31:34.651Z,92.20
2022-09-01T19:34:07.498Z,92.20
2022-09-01T19:36:40.416Z,92.20
2022-09-01T19:39:13.345Z,92.20
2022-09-01T19:41:54.186Z,92.20
2022-09-01T19:44:24.501Z,92.20
2022-09-01T19:47:03.409Z,92.20
2022-09-01T19:49:48.421Z,92.20
2022-09-01T19:53:05.140Z,92.20
2022-09-01T19:55:38.645Z,92.20
2022-09-01T19:58:14.958Z,92.20
2022-09-01T20:00:51.114Z,92.20
2022-09-01T20:03:38.856Z,92.20
2022-09-01T20:06:11.495Z,92.20
2022-09-01T20:09:06.016Z,92.20
2022-09-01T20:11:50.141Z,92.20
2022-09-01T20:14:35.846Z,92.20
2022-09-01T20:17:06.802Z,92.20
2022-09-01T20:19:57.380Z,92.20
2022-09-01T20:22:44.321Z,92.20
2022-09-01T20:25:16.587Z,92.20
2022-09-01T20:28:02.365Z,92.20
2022-09-01T20:30:40.274Z,92.20
2022-09-01T20:33:36.456Z,92.20
2022-09-01T20:36:22.305Z,92.20
2022-09-01T20:39:28.441Z,92.20
2022-09-01T20:42:44.154Z,92.20
2022-09-01T20:45:22.184Z,92.20
2022-09-01T20:48:00.735Z,92.20
2022-09-01T20:51:12.371Z,92.20
2022-09-01T20:53:54.641Z,92.20
2022-09-01T20:56:40.574Z,92.20
2022-09-01T20:59:28.260Z,92.20
2022-09-01T21:02:26.767Z,92.20
2022-09-01T21:05:24.015Z,92.20
2022-09-01T21:08:09.529Z,92.20
2022-09-01T21:11:08.367Z,92.20
2022-09-01T21:14:06.190Z,92.20
2022-09-01T21:16:47.840Z,92.20
2022-09-01T21:19:28.290Z,92.20
2022-09-01T21:22:03.845Z,92.20
2022-09-01T21:24:31.383Z,92.20
2022-09-01T21:27:02.601Z,92.20
2022-09-01T21:29:43.961Z,92.20
2022-09-01T21:32:16.260Z,92.20
2022-09-01T21:34:48.107Z,92.20
2022-09-01T21:37:15.464Z,92.20
2022-09-01T21:39:43.221Z,92.20
2022-09-01T21:42:12.830Z,92.20
2022-09-01T21:44:41.648Z,92.20
2022-09-01T21:47:09.079Z,92.20
2022-09-01T21:49:37.353Z,92.20
2022-09-01T21:52:05.770Z,92.20
2022-09-01T21:54:34.686Z,92.20
2022-09-01T21:57:02.024Z,92.20
2022-09-01T21:59:29.732Z,92.20
2022-09-01T22:01:57.154Z,92.20
2022-09-01T22:04:24.661Z,92.20
2022-09-01T22:06:52.492Z,92.20
2022-09-01T22:09:22.510Z,92.20
2022-09-01T22:11:51.599Z,92.20
2022-09-01T22:14:20.690Z,92.20
2022-09-01T22:16:49.270Z,92.20
2022-09-01T22:19:17.429Z,92.20
2022-09-01T22:21:47.714Z,92.20
2022-09-01T22:24:19.100Z,92.20
2022-09-01T22:26:48.783Z,92.20
2022-09-01T22:29:17.676Z,92.20
2022-09-01T22:31:45.308Z,92.20
2022-09-01T22:34:13.226Z,92.20
2022-09-01T22:36:45.887Z,92.20
2022-09-01T22:39:14.807Z,92.20
2022-09-01T22:41:42.841Z,92.20
2022-09-01T22:44:11.140Z,92.20
2022-09-01T22:46:40.049Z,92.20
2022-09-01T22:49:08.260Z,92.20
2022-09-01T22:51:40.350Z,92.20
2022-09-01T22:54:09.258Z,92.20
2022-09-01T22:56:39.735Z,92.20
2022-09-01T22:59:10.500Z,92.20
2022-09-01T23:01:42.257Z,92.20
2022-09-01T23:04:12.267Z,92.20
2022-09-01T23:06:45.196Z,92.20
2022-09-01T23:09:13.660Z,92.20
2022-09-01T23:11:41.455Z,92.20
2022-09-01T23:14:09.004Z,92.20
2022-09-01T23:16:36.419Z,92.20
2022-09-01T23:19:04.772Z,92.20
2022-09-01T23:21:35.448Z,92.20
2022-09-01T23:24:04.166Z,92.20
2022-09-01T23:26:32.874Z,92.20
2022-09-01T23:29:00.465Z,92.20
2022-09-01T23:31:32.432Z,92.20
2022-09-01T23:33:59.915Z,92.20
2022-09-01T23:36:28.978Z,92.20
2022-09-01T23:38:56.960Z,92.20
2022-09-01T23:41:31.765Z,92.20
2022-09-01T23:44:01.749Z,92.20
2022-09-01T23:46:33.394Z,92.20
2022-09-01T23:49:01.930Z,92.20
2022-09-01T23:51:29.347Z,92.20
2022-09-01T23:53:57.572Z,92.20
2022-09-01T23:56:26.994Z,92.20
2022-09-01T23:58:54.458Z,92.20
